Time;durP1;ratioP1;P1;durP2;ratioP2;P2;SDS_P1;SDS_P2;PMS_P1;PMS_P2;Temp;Humidity;BMP_temperature;BMP_pressure;BME280_temperature;BME280_humidity;BME280_pressure;Samples;Min_cycle;Max_cycle;Signal;HPM_P1;HPM_P2
2022/05/05 00:01:49;;;;;;;;;;;15.10;79.60;;;;;;5057279;28;19932;-79
2022/05/05 00:04:15;;;;;;;;;;;15.20;79.70;;;;;;5053687;28;19935;-79
2022/05/05 00:06:43;;;;;;;;;;;15.10;79.80;;;;;;5052210;28;19940;-81
2022/05/05 00:09:10;;;;;;;;;;;15.10;79.20;;;;;;5053889;28;19935;-82
2022/05/05 00:14:31;;;;;;;;;;;15.00;80.00;;;;;;5053852;28;19936;-80
2022/05/05 00:16:59;;;;;;;;;;;15.00;80.00;;;;;;5052904;28;19928;-79
2022/05/05 00:19:26;;;;;;;;;;;15.00;79.50;;;;;;5055403;28;20109;-81
2022/05/05 00:21:54;;;;;;;;;;;15.00;80.20;;;;;;5050934;28;19929;-79
2022/05/05 00:24:21;;;;;;;;;;;15.00;80.10;;;;;;5051000;28;21129;-79
2022/05/05 00:26:47;;;;;;;;;;;14.90;80.10;;;;;;5055037;28;19933;-80
2022/05/05 00:29:14;;;;;;;;;;;14.90;79.70;;;;;;5054220;28;19932;-81
2022/05/05 00:31:41;;;;;;;;;;;14.90;80.30;;;;;;5052349;28;19929;-79
2022/05/05 00:34:07;;;;;;;;;;;14.90;80.50;;;;;;5049024;28;20006;-80
2022/05/05 00:36:34;;;;;;;;;;;14.90;80.40;;;;;;5055328;28;19929;-80
2022/05/05 00:39:02;;;;;;;;;;;14.90;79.90;;;;;;5054522;28;19939;-80
2022/05/05 00:41:32;;;;;;;;;;;14.90;80.50;;;;;;5056507;28;19932;-79
2022/05/05 00:43:58;;;;;;;;;;;14.90;80.60;;;;;;5053402;28;19979;-79
2022/05/05 00:46:25;;;;;;;;;;;14.80;80.60;;;;;;5050089;28;19935;-79
2022/05/05 00:48:51;;;;;;;;;;;14.80;80.60;;;;;;5054096;28;19934;-79
2022/05/05 00:51:18;;;;;;;;;;;14.80;80.70;;;;;;5053180;28;19933;-82
2022/05/05 00:53:44;;;;;;;;;;;14.80;80.70;;;;;;5054166;28;19944;-80
2022/05/05 00:56:14;;;;;;;;;;;14.70;80.80;;;;;;5050339;28;19932;-79
2022/05/05 00:58:42;;;;;;;;;;;14.70;80.30;;;;;;5048497;28;19971;-79
2022/05/05 01:01:09;;;;;;;;;;;14.70;80.90;;;;;;5058601;28;19924;-83
2022/05/05 01:03:37;;;;;;;;;;;14.70;81.00;;;;;;5051487;28;19928;-80
2022/05/05 01:06:05;;;;;;;;;;;14.70;81.00;;;;;;5053904;28;19932;-80
2022/05/05 01:08:33;;;;;;;;;;;14.70;80.60;;;;;;5052992;28;19935;-78
2022/05/05 01:11:00;;;;;;;;;;;14.60;81.10;;;;;;5056565;28;19936;-79
2022/05/05 01:13:27;;;;;;;;;;;14.70;81.40;;;;;;5059714;28;19928;-79
2022/05/05 01:15:55;;;;;;;;;;;14.60;81.20;;;;;;5056956;28;19940;-80
2022/05/05 01:18:22;;;;;;;;;;;14.60;80.80;;;;;;5057900;28;19929;-79
2022/05/05 01:20:49;;;;;;;;;;;14.60;81.30;;;;;;5058429;28;19932;-80
2022/05/05 01:23:17;;;;;;;;;;;14.60;81.40;;;;;;5061528;28;19932;-80
2022/05/05 01:28:29;;;;;;;;;;;14.50;88.90;;;;;;5054804;28;20407;-80
2022/05/05 01:30:55;;;;;;;;;;;14.50;86.70;;;;;;5056946;28;19935;-80
2022/05/05 01:33:22;;;;;;;;;;;14.50;92.80;;;;;;5056944;28;19939;-79
2022/05/05 01:35:49;;;;;;;;;;;14.50;84.10;;;;;;5057050;28;19932;-80
2022/05/05 01:38:20;;;;;;;;;;;14.80;92.40;;;;;;5056724;28;19929;-81
2022/05/05 01:40:47;;;;;;;;;;;14.50;81.20;;;;;;5056498;28;19928;-80
2022/05/05 01:43:14;;;;;;;;;;;14.50;84.30;;;;;;5056745;28;20023;-80
2022/05/05 01:45:40;;;;;;;;;;;14.50;82.00;;;;;;5054459;28;19940;-81
2022/05/05 01:48:07;;;;;;;;;;;14.50;92.70;;;;;;5056166;28;19928;-80
2022/05/05 01:50:34;;;;;;;;;;;14.40;82.00;;;;;;5056834;28;19935;-80
2022/05/05 01:53:01;;;;;;;;;;;14.40;82.10;;;;;;5054592;28;19932;-79
2022/05/05 01:55:30;;;;;;;;;;;15.10;82.70;;;;;;5055275;28;19939;-82
2022/05/05 01:57:57;;;;;;;;;;;14.40;82.20;;;;;;5055151;28;19925;-81
2022/05/05 02:00:24;;;;;;;;;;;14.40;81.60;;;;;;5051074;28;19928;-80
2022/05/05 02:02:50;;;;;;;;;;;14.40;82.30;;;;;;5058068;28;19939;-79
2022/05/05 02:05:17;;;;;;;;;;;14.40;82.50;;;;;;5054497;28;19929;-79
2022/05/05 02:07:44;;;;;;;;;;;14.40;82.40;;;;;;5052036;28;19928;-82
2022/05/05 02:10:13;;;;;;;;;;;14.40;81.80;;;;;;5053090;28;19929;-80
2022/05/05 02:12:42;;;;;;;;;;;14.30;82.40;;;;;;5054899;28;19936;-83
2022/05/05 02:15:10;;;;;;;;;;;14.30;82.50;;;;;;5053258;28;19928;-81
2022/05/05 02:17:37;;;;;;;;;;;14.30;82.50;;;;;;5053998;28;19948;-81
2022/05/05 02:20:04;;;;;;;;;;;14.30;82.00;;;;;;5054524;28;19941;-79
2022/05/05 02:22:31;;;;;;;;;;;14.30;82.70;;;;;;5055408;28;19936;-80
2022/05/05 02:24:58;;;;;;;;;;;14.20;84.40;;;;;;5050830;28;19936;-79
2022/05/05 02:27:25;;;;;;;;;;;14.30;82.70;;;;;;5054932;28;19975;-80
2022/05/05 02:29:53;;;;;;;;;;;14.30;82.10;;;;;;5054101;28;20396;-78
2022/05/05 02:32:20;;;;;;;;;;;14.30;82.70;;;;;;5052046;28;19932;-81
2022/05/05 02:34:47;;;;;;;;;;;14.20;82.10;;;;;;5053513;28;19928;-79
2022/05/05 02:39:58;;;;;;;;;;;14.20;82.20;;;;;;5055055;28;19947;-80
2022/05/05 02:42:25;;;;;;;;;;;13.90;82.00;;;;;;5051863;28;19928;-79
2022/05/05 02:44:52;;;;;;;;;;;14.20;82.20;;;;;;5050799;28;20416;-79
2022/05/05 02:47:19;;;;;;;;;;;14.20;82.90;;;;;;5052174;28;19952;-79
2022/05/05 02:49:45;;;;;;;;;;;14.20;82.30;;;;;;5051753;28;20297;-78
2022/05/05 02:52:12;;;;;;;;;;;14.20;82.90;;;;;;5053752;28;19936;-81
2022/05/05 02:54:55;;;;;;;;;;;14.10;83.00;;;;;;5050109;28;19939;-80
2022/05/05 02:57:23;;;;;;;;;;;14.20;83.10;;;;;;5053500;28;19939;-78
2022/05/05 02:59:50;;;;;;;;;;;14.10;82.40;;;;;;5048662;28;19948;-81
2022/05/05 03:02:18;;;;;;;;;;;14.10;83.00;;;;;;5053270;28;19932;-80
2022/05/05 03:04:44;;;;;;;;;;;14.00;83.30;;;;;;5051916;28;19932;-80
2022/05/05 03:07:11;;;;;;;;;;;14.50;83.50;;;;;;5054283;28;19959;-79
2022/05/05 03:09:38;;;;;;;;;;;14.10;82.70;;;;;;5051711;28;19935;-80
2022/05/05 03:12:05;;;;;;;;;;;14.10;83.50;;;;;;5051310;28;20038;-79
2022/05/05 03:14:32;;;;;;;;;;;14.10;83.40;;;;;;5056267;28;19939;-80
2022/05/05 03:16:58;;;;;;;;;;;15.40;84.70;;;;;;5048019;28;19929;-80
2022/05/05 03:19:27;;;;;;;;;;;14.00;82.80;;;;;;5051300;28;19935;-78
2022/05/05 03:21:53;;;;;;;;;;;14.00;83.60;;;;;;5054191;28;19955;-79
2022/05/05 03:24:20;;;;;;;;;;;14.50;84.10;;;;;;5047555;28;19932;-80
2022/05/05 03:26:47;;;;;;;;;;;14.10;84.70;;;;;;5049053;28;19963;-80
2022/05/05 03:29:13;;;;;;;;;;;14.00;83.10;;;;;;5052797;28;19928;-79
2022/05/05 03:31:40;;;;;;;;;;;14.00;83.60;;;;;;5051777;28;19933;-80
2022/05/05 03:34:06;;;;;;;;;;;14.00;83.70;;;;;;5054105;28;19944;-80
2022/05/05 03:36:34;;;;;;;;;;;13.90;83.00;;;;;;5051946;28;19959;-79
2022/05/05 03:39:01;;;;;;;;;;;14.00;83.20;;;;;;5048084;28;19924;-79
2022/05/05 03:41:28;;;;;;;;;;;13.90;83.00;;;;;;5050648;28;19928;-79
2022/05/05 03:43:54;;;;;;;;;;;13.90;83.70;;;;;;5048892;28;20426;-80
2022/05/05 03:46:21;;;;;;;;;;;13.90;83.10;;;;;;5050143;28;20425;-78
2022/05/05 03:48:48;;;;;;;;;;;14.00;83.20;;;;;;5053127;28;19928;-79
2022/05/05 03:51:14;;;;;;;;;;;13.90;83.90;;;;;;5052317;28;19936;-79
2022/05/05 03:53:42;;;;;;;;;;;14.40;85.00;;;;;;5048109;28;20411;-81
2022/05/05 03:56:09;;;;;;;;;;;13.80;83.30;;;;;;5048336;28;19929;-81
2022/05/05 03:58:36;;;;;;;;;;;13.90;83.30;;;;;;5046583;28;20490;-80
2022/05/05 04:01:03;;;;;;;;;;;13.90;83.80;;;;;;5053610;28;20307;-81
2022/05/05 04:03:32;;;;;;;;;;;14.60;84.50;;;;;;5052428;28;20215;-78
2022/05/05 04:05:59;;;;;;;;;;;13.90;83.40;;;;;;5048795;28;20779;-79
2022/05/05 04:08:26;;;;;;;;;;;13.90;83.60;;;;;;5048869;28;19976;-79
2022/05/05 04:10:54;;;;;;;;;;;14.80;84.80;;;;;;5047062;28;19940;-78
2022/05/05 04:13:21;;;;;;;;;;;13.80;85.90;;;;;;5051477;28;20375;-78
2022/05/05 04:15:48;;;;;;;;;;;13.80;84.30;;;;;;5053216;28;19996;-79
2022/05/05 04:18:14;;;;;;;;;;;13.90;88.20;;;;;;5049507;28;19929;-79
2022/05/05 04:20:41;;;;;;;;;;;15.20;89.40;;;;;;5048445;28;19928;-80
2022/05/05 04:23:08;;;;;;;;;;;13.90;84.50;;;;;;5049631;28;20042;-79
2022/05/05 04:25:34;;;;;;;;;;;13.80;84.50;;;;;;5054905;28;19928;-79
2022/05/05 04:28:02;;;;;;;;;;;13.80;84.60;;;;;;5045352;28;19925;-79
2022/05/05 04:30:31;;;;;;;;;;;13.70;84.00;;;;;;5050940;28;19932;-79
2022/05/05 04:32:57;;;;;;;;;;;13.80;84.70;;;;;;5049791;28;20047;-79
2022/05/05 04:35:24;;;;;;;;;;;13.80;84.90;;;;;;5048173;28;19925;-78
2022/05/05 04:37:50;;;;;;;;;;;13.70;85.00;;;;;;5045043;28;19967;-79
2022/05/05 04:40:17;;;;;;;;;;;13.70;84.70;;;;;;5048132;28;20626;-78
2022/05/05 04:42:43;;;;;;;;;;;13.70;92.60;;;;;;5050005;28;19928;-80
2022/05/05 04:45:12;;;;;;;;;;;13.70;91.70;;;;;;5052020;28;19940;-80
2022/05/05 04:47:38;;;;;;;;;;;13.70;93.90;;;;;;5051036;28;19968;-80
2022/05/05 04:50:05;;;;;;;;;;;13.70;90.10;;;;;;5055409;28;20308;-79
2022/05/05 04:52:32;;;;;;;;;;;13.70;90.70;;;;;;5058383;28;20403;-79
2022/05/05 04:54:59;;;;;;;;;;;13.80;91.30;;;;;;5052592;28;19935;-79
2022/05/05 04:57:26;;;;;;;;;;;14.10;92.90;;;;;;5052746;28;20445;-79
2022/05/05 04:59:53;;;;;;;;;;;13.70;87.60;;;;;;5052937;28;20038;-80
2022/05/05 05:02:21;;;;;;;;;;;13.80;88.60;;;;;;5048697;28;19935;-79
2022/05/05 05:04:47;;;;;;;;;;;13.70;88.90;;;;;;5051724;28;19931;-79
2022/05/05 05:07:14;;;;;;;;;;;15.30;89.10;;;;;;5057022;28;20015;-78
2022/05/05 05:09:41;;;;;;;;;;;13.20;86.50;;;;;;5054473;28;19936;-78
2022/05/05 05:12:08;;;;;;;;;;;14.30;88.80;;;;;;5057371;28;19932;-78
2022/05/05 05:14:34;;;;;;;;;;;13.60;87.60;;;;;;5059200;28;19939;-80
2022/05/05 05:17:01;;;;;;;;;;;13.90;91.90;;;;;;5052735;28;19929;-77
2022/05/05 05:19:29;;;;;;;;;;;13.60;89.90;;;;;;5058193;28;19935;-79
2022/05/05 05:21:55;;;;;;;;;;;13.60;88.10;;;;;;5053643;28;19928;-79
2022/05/05 05:24:22;;;;;;;;;;;13.50;90.80;;;;;;5056872;28;19936;-80
2022/05/05 05:26:48;;;;;;;;;;;13.60;91.40;;;;;;5055769;28;19936;-78
2022/05/05 05:29:15;;;;;;;;;;;13.60;91.30;;;;;;5066071;28;19928;-78
2022/05/05 05:31:42;;;;;;;;;;;14.40;90.00;;;;;;5057197;28;20414;-81
2022/05/05 05:34:08;;;;;;;;;;;13.60;90.90;;;;;;5055315;28;19933;-79
2022/05/05 05:36:36;;;;;;;;;;;13.60;90.80;;;;;;5052355;28;19929;-80
2022/05/05 05:39:03;;;;;;;;;;;13.60;93.20;;;;;;5056285;28;20323;-78
2022/05/05 05:41:29;;;;;;;;;;;13.60;95.60;;;;;;5053430;28;19936;-78
2022/05/05 05:43:56;;;;;;;;;;;13.90;95.50;;;;;;5054934;28;19933;-79
2022/05/05 05:46:23;;;;;;;;;;;13.60;97.70;;;;;;5054567;28;19948;-77
2022/05/05 05:48:50;;;;;;;;;;;;;;;;;;5050680;28;19928;-69
2022/05/05 05:51:17;;;;;;;;;;;13.70;95.40;;;;;;5053277;28;20361;-69
2022/05/05 05:53:45;;;;;;;;;;;14.00;91.80;;;;;;5056644;28;19929;-69
2022/05/05 05:56:11;;;;;;;;;;;15.20;92.70;;;;;;5055875;28;19956;-68
2022/05/05 05:58:38;;;;;;;;;;;13.60;85.10;;;;;;5054827;28;19924;-68
2022/05/05 06:01:06;;;;;;;;;;;13.60;85.90;;;;;;5060973;28;20011;-71
2022/05/05 06:06:17;;;;;;;;;;;13.60;86.90;;;;;;5055822;28;19928;-70
2022/05/05 06:08:45;;;;;;;;;;;;;;;;;;5054846;28;19928;-68
2022/05/05 06:11:13;;;;;;;;;;;14.00;88.30;;;;;;5057588;28;20029;-71
2022/05/05 06:13:40;;;;;;;;;;;13.80;88.50;;;;;;5056803;28;19981;-70
2022/05/05 06:16:09;;;;;;;;;;;13.70;88.20;;;;;;5058291;28;19940;-69
2022/05/05 06:18:37;;;;;;;;;;;13.80;87.40;;;;;;5057529;28;19929;-71
2022/05/05 06:21:03;;;;;;;;;;;13.80;88.00;;;;;;5050762;28;19932;-70
2022/05/05 06:23:30;;;;;;;;;;;13.70;87.70;;;;;;5061608;28;19928;-70
2022/05/05 06:25:57;;;;;;;;;;;13.80;87.70;;;;;;5054396;28;19928;-71
2022/05/05 06:28:24;;;;;;;;;;;13.70;86.90;;;;;;5052061;28;19928;-69
2022/05/05 06:30:51;;;;;;;;;;;13.70;87.40;;;;;;5060467;28;19929;-70
2022/05/05 06:33:18;;;;;;;;;;;13.70;87.30;;;;;;5056581;28;19932;-70
2022/05/05 06:35:44;;;;;;;;;;;13.80;87.30;;;;;;5055546;28;19928;-70
2022/05/05 06:38:11;;;;;;;;;;;13.80;86.60;;;;;;5055376;28;19932;-70
2022/05/05 06:40:37;;;;;;;;;;;13.70;87.20;;;;;;5052621;28;19940;-71
2022/05/05 06:43:04;;;;;;;;;;;13.80;87.10;;;;;;5056320;28;19979;-70
2022/05/05 06:45:32;;;;;;;;;;;13.80;87.10;;;;;;5057495;28;20022;-69
2022/05/05 06:47:59;;;;;;;;;;;13.90;87.00;;;;;;5053540;28;19929;-69
2022/05/05 06:50:25;;;;;;;;;;;13.70;86.30;;;;;;5055568;28;19986;-70
2022/05/05 06:52:52;;;;;;;;;;;13.80;86.80;;;;;;5057302;28;19939;-70
2022/05/05 06:55:19;;;;;;;;;;;13.80;86.70;;;;;;5053676;28;19928;-70
2022/05/05 06:57:46;;;;;;;;;;;13.80;86.60;;;;;;5056916;28;19982;-71
2022/05/05 07:00:13;;;;;;;;;;;13.80;85.90;;;;;;5053038;28;19929;-78
2022/05/05 07:02:41;;;;;;;;;;;13.80;86.50;;;;;;5054198;28;19928;-78
2022/05/05 07:05:28;;;;;;;;;;;14.50;86.90;;;;;;5050455;28;19928;-78
2022/05/05 07:07:54;;;;;;;;;;;13.80;86.30;;;;;;5053662;28;19928;-79
2022/05/05 07:13:06;;;;;;;;;;;13.80;85.80;;;;;;5048391;28;19931;-76
2022/05/05 07:15:33;;;;;;;;;;;13.80;85.70;;;;;;5053067;28;19932;-76
2022/05/05 07:18:01;;;;;;;;;;;13.80;85.60;;;;;;5049957;28;19929;-77
2022/05/05 07:20:28;;;;;;;;;;;13.80;84.80;;;;;;5052239;28;19940;-77
2022/05/05 07:22:56;;;;;;;;;;;13.80;85.50;;;;;;5052931;28;19932;-79
2022/05/05 07:25:23;;;;;;;;;;;13.80;85.20;;;;;;5051339;28;19932;-77
2022/05/05 07:27:50;;;;;;;;;;;13.80;85.20;;;;;;5051050;28;20503;-80
2022/05/05 07:30:16;;;;;;;;;;;13.80;84.60;;;;;;5058967;28;19986;-78
2022/05/05 07:32:43;;;;;;;;;;;13.80;85.20;;;;;;5053789;28;19929;-78
2022/05/05 07:35:11;;;;;;;;;;;13.80;85.10;;;;;;5050732;28;19940;-81
2022/05/05 07:37:39;;;;;;;;;;;13.80;85.20;;;;;;5051502;28;20054;-78
2022/05/05 07:40:06;;;;;;;;;;;13.80;85.20;;;;;;5049762;28;20393;-78
2022/05/05 07:42:33;;;;;;;;;;;13.80;85.20;;;;;;5051953;28;19935;-79
2022/05/05 07:44:59;;;;;;;;;;;13.80;85.20;;;;;;5054486;28;19936;-83
2022/05/05 07:47:26;;;;;;;;;;;13.80;85.10;;;;;;5050699;28;19940;-78
2022/05/05 07:49:52;;;;;;;;;;;13.80;85.10;;;;;;5050716;28;20387;-77
2022/05/05 07:52:20;;;;;;;;;;;13.80;85.10;;;;;;5052351;28;19929;-82
2022/05/05 07:54:47;;;;;;;;;;;13.80;85.20;;;;;;5050414;28;19929;-79
2022/05/05 07:57:14;;;;;;;;;;;13.80;84.70;;;;;;5052044;28;19932;-78
2022/05/05 07:59:42;;;;;;;;;;;13.80;84.80;;;;;;5052116;28;20376;-79
2022/05/05 08:02:13;;;;;;;;;;;13.80;84.80;;;;;;5052089;28;19936;-79
2022/05/05 08:04:42;;;;;;;;;;;14.30;85.90;;;;;;5054144;28;20342;-80
2022/05/05 08:07:09;;;;;;;;;;;13.80;85.00;;;;;;5050048;28;19925;-79
2022/05/05 08:09:40;;;;;;;;;;;13.80;85.20;;;;;;5056993;28;19936;-78
2022/05/05 08:12:09;;;;;;;;;;;13.80;85.90;;;;;;5053940;28;20031;-78
2022/05/05 08:14:36;;;;;;;;;;;13.80;86.80;;;;;;5054595;28;20433;-78
2022/05/05 08:17:04;;;;;;;;;;;13.80;85.40;;;;;;5052472;28;19959;-78
2022/05/05 08:19:32;;;;;;;;;;;13.80;85.40;;;;;;5053535;28;19929;-78
2022/05/05 08:22:00;;;;;;;;;;;13.70;85.40;;;;;;5061589;28;19954;-75
2022/05/05 08:30:00;;;;;;;;;;;13.80;85.80;;;;;;5056935;28;19971;-77
2022/05/05 08:32:26;;;;;;;;;;;13.80;86.50;;;;;;5057437;28;19938;-78
2022/05/05 08:34:53;;;;;;;;;;;13.70;87.20;;;;;;5059622;28;19939;-78
2022/05/05 08:37:20;;;;;;;;;;;13.80;86.60;;;;;;5054450;28;19939;-78
2022/05/05 08:39:46;;;;;;;;;;;13.70;86.00;;;;;;5059181;28;19940;-79
2022/05/05 08:42:14;;;;;;;;;;;13.70;86.60;;;;;;5056114;28;19929;-79
2022/05/05 08:44:42;;;;;;;;;;;13.70;86.70;;;;;;5054222;28;19929;-78
2022/05/05 08:47:09;;;;;;;;;;;13.70;87.00;;;;;;5053064;28;19929;-81
2022/05/05 08:49:36;;;;;;;;;;;13.70;86.90;;;;;;5055465;28;19935;-78
2022/05/05 08:52:04;;;;;;;;;;;13.70;87.10;;;;;;5051832;28;19929;-78
2022/05/05 08:54:32;;;;;;;;;;;13.70;87.10;;;;;;5053353;28;19944;-78
2022/05/05 08:56:59;;;;;;;;;;;13.70;87.10;;;;;;5051795;28;19935;-77
2022/05/05 08:59:27;;;;;;;;;;;13.70;86.50;;;;;;5055390;28;19936;-78
2022/05/05 09:01:54;;;;;;;;;;;13.70;86.60;;;;;;5034349;28;19936;-78
2022/05/05 09:04:21;;;;;;;;;;;13.70;87.30;;;;;;5055717;28;19936;-80
2022/05/05 09:06:48;;;;;;;;;;;13.60;87.40;;;;;;5055854;28;19936;-79
2022/05/05 09:09:25;;;;;;;;;;;13.60;87.40;;;;;;5054420;28;20403;-78
2022/05/05 09:12:05;;;;;;;;;;;13.70;87.50;;;;;;5055782;28;19968;-79
2022/05/05 09:14:37;;;;;;;;;;;13.70;87.50;;;;;;5058064;28;20672;-81
2022/05/05 09:17:04;;;;;;;;;;;13.70;87.70;;;;;;5053763;28;19936;-78
2022/05/05 09:19:35;;;;;;;;;;;13.70;87.30;;;;;;5057681;28;19928;-81
2022/05/05 09:22:03;;;;;;;;;;;13.70;87.30;;;;;;5055657;28;19935;-79
2022/05/05 09:24:36;;;;;;;;;;;13.70;87.50;;;;;;5053140;28;19929;-80
2022/05/05 09:27:17;;;;;;;;;;;13.70;88.30;;;;;;5052691;28;19976;-80
2022/05/05 09:29:55;;;;;;;;;;;13.70;87.70;;;;;;5050162;28;19932;-79
2022/05/05 09:32:22;;;;;;;;;;;13.70;88.30;;;;;;5049070;28;19958;-78
2022/05/05 09:34:55;;;;;;;;;;;13.70;88.20;;;;;;5061430;28;19929;-80
2022/05/05 09:37:22;;;;;;;;;;;13.70;88.00;;;;;;5056494;28;21722;-81
2022/05/05 09:39:53;;;;;;;;;;;13.70;87.60;;;;;;5054097;28;20561;-78
2022/05/05 09:42:34;;;;;;;;;;;13.70;88.40;;;;;;5053003;28;20328;-79
2022/05/05 09:45:12;;;;;;;;;;;13.70;88.60;;;;;;5054389;28;19968;-80
2022/05/05 09:47:41;;;;;;;;;;;13.70;88.10;;;;;;5051467;28;19972;-80
2022/05/05 09:50:08;;;;;;;;;;;13.70;88.10;;;;;;5055818;28;19934;-78
2022/05/05 09:58:08;;;;;;;;;;;13.70;89.30;;;;;;5053957;28;19940;-79
2022/05/05 10:00:46;;;;;;;;;;;13.70;88.80;;;;;;5055852;28;19936;-79
2022/05/05 10:06:00;;;;;;;;;;;13.70;89.60;;;;;;5055556;28;20750;-80
2022/05/05 10:08:31;;;;;;;;;;;13.70;89.10;;;;;;5057485;28;19951;-80
2022/05/05 10:10:58;;;;;;;;;;;13.70;89.60;;;;;;5052482;28;19925;-78
2022/05/05 10:13:26;;;;;;;;;;;13.70;89.70;;;;;;5054964;28;20315;-79
2022/05/05 10:15:54;;;;;;;;;;;13.70;89.80;;;;;;5059352;28;19954;-79
2022/05/05 10:18:21;;;;;;;;;;;13.80;89.50;;;;;;5056285;28;20882;-79
2022/05/05 10:20:48;;;;;;;;;;;13.80;90.00;;;;;;5056451;28;19929;-78
2022/05/05 10:23:18;;;;;;;;;;;13.70;90.00;;;;;;5055764;28;19940;-79
2022/05/05 10:25:51;;;;;;;;;;;13.80;90.10;;;;;;5057153;28;19932;-78
2022/05/05 10:28:36;;;;;;;;;;;13.80;89.60;;;;;;5055685;28;19940;-79
2022/05/05 10:31:04;;;;;;;;;;;13.80;90.00;;;;;;5051205;28;19935;-78
2022/05/05 10:33:46;;;;;;;;;;;13.80;90.10;;;;;;5057959;28;19928;-72
2022/05/05 10:36:22;;;;;;;;;;;13.80;90.10;;;;;;5051312;28;19929;-70
2022/05/05 10:38:49;;;;;;;;;;;13.80;90.10;;;;;;5056439;28;19932;-71
2022/05/05 10:41:35;;;;;;;;;;;13.80;90.00;;;;;;5052463;28;20384;-71
2022/05/05 10:44:20;;;;;;;;;;;13.80;90.00;;;;;;5052820;28;20089;-70
2022/05/05 10:46:59;;;;;;;;;;;13.80;90.00;;;;;;5054576;28;20392;-70
2022/05/05 10:49:45;;;;;;;;;;;13.80;90.00;;;;;;5055455;28;19929;-70
2022/05/05 10:52:29;;;;;;;;;;;13.80;90.00;;;;;;5053592;28;21606;-70
2022/05/05 10:54:56;;;;;;;;;;;13.80;90.00;;;;;;5057084;28;19968;-70
2022/05/05 10:57:42;;;;;;;;;;;13.80;89.90;;;;;;5054112;28;20008;-69
2022/05/05 11:00:09;;;;;;;;;;;13.90;89.80;;;;;;5053356;28;19962;-70
2022/05/05 11:02:37;;;;;;;;;;;13.90;89.70;;;;;;5057227;28;19935;-71
2022/05/05 11:05:22;;;;;;;;;;;14.00;89.80;;;;;;5054234;28;20047;-69
2022/05/05 11:07:50;;;;;;;;;;;14.00;89.70;;;;;;5055783;28;19932;-70
2022/05/05 11:10:35;;;;;;;;;;;14.00;89.70;;;;;;5056255;28;19928;-70
2022/05/05 11:13:01;;;;;;;;;;;14.00;89.70;;;;;;5054033;28;20759;-70
2022/05/05 11:23:57;;;;;;;;;;;14.00;89.30;;;;;;5056208;28;20047;-70
2022/05/05 11:26:23;;;;;;;;;;;14.10;89.30;;;;;;5054792;28;20670;-70
2022/05/05 11:28:50;;;;;;;;;;;14.10;89.10;;;;;;5055674;28;19955;-70
2022/05/05 11:31:19;;;;;;;;;;;14.10;88.90;;;;;;5056920;28;19929;-70
2022/05/05 11:33:49;;;;;;;;;;;14.10;88.90;;;;;;5050987;28;19975;-70
2022/05/05 11:36:16;;;;;;;;;;;14.10;88.90;;;;;;5053816;28;20369;-70
2022/05/05 11:38:43;;;;;;;;;;;14.10;88.80;;;;;;5050637;28;19974;-70
2022/05/05 11:41:10;;;;;;;;;;;14.20;88.70;;;;;;5050542;28;19929;-71
2022/05/05 11:46:21;;;;;;;;;;;14.20;88.50;;;;;;5053930;28;19958;-71
2022/05/05 11:48:54;;;;;;;;;;;14.20;88.30;;;;;;5053368;28;19928;-71
2022/05/05 11:51:24;;;;;;;;;;;14.30;88.30;;;;;;5053900;28;19967;-69
2022/05/05 11:53:59;;;;;;;;;;;14.30;88.10;;;;;;5049857;28;19932;-70
2022/05/05 11:56:25;;;;;;;;;;;14.30;87.90;;;;;;5051408;28;20534;-69
2022/05/05 12:01:40;;;;;;;;;;;14.40;87.80;;;;;;5051488;28;20311;-70
2022/05/05 12:04:09;;;;;;;;;;;14.40;87.80;;;;;;5050404;28;20636;-71
2022/05/05 12:06:37;;;;;;;;;;;14.70;87.90;;;;;;5055661;28;20015;-71
2022/05/05 12:09:05;;;;;;;;;;;14.50;87.80;;;;;;5053374;28;19935;-71
2022/05/05 12:11:31;;;;;;;;;;;14.50;87.90;;;;;;5051158;28;21161;-69
2022/05/05 12:14:03;;;;;;;;;;;14.60;87.90;;;;;;5059009;28;20387;-69
2022/05/05 12:16:31;;;;;;;;;;;14.60;87.80;;;;;;5049718;28;19972;-72
2022/05/05 12:18:58;;;;;;;;;;;14.60;87.70;;;;;;5054406;28;20043;-70
2022/05/05 12:21:26;;;;;;;;;;;14.60;87.60;;;;;;5051106;28;20020;-70
2022/05/05 12:23:56;;;;;;;;;;;14.60;87.60;;;;;;5053349;28;20362;-70
2022/05/05 12:26:28;;;;;;;;;;;14.70;87.70;;;;;;5051704;28;19964;-70
2022/05/05 12:28:54;;;;;;;;;;;14.70;87.70;;;;;;5058640;28;20381;-79
2022/05/05 12:31:22;;;;;;;;;;;14.70;87.60;;;;;;5044073;28;19948;-80
2022/05/05 12:33:48;;;;;;;;;;;14.70;86.90;;;;;;5050630;28;20039;-80
2022/05/05 12:36:16;;;;;;;;;;;14.80;87.60;;;;;;5057760;28;19925;-82
2022/05/05 12:38:44;;;;;;;;;;;14.80;86.70;;;;;;5057149;28;20306;-81
2022/05/05 12:41:11;;;;;;;;;;;14.80;86.70;;;;;;5057445;28;19929;-80
2022/05/05 12:43:40;;;;;;;;;;;14.80;86.50;;;;;;5054429;28;19929;-83
2022/05/05 12:46:06;;;;;;;;;;;14.80;87.00;;;;;;5055861;28;19932;-78
2022/05/05 12:48:38;;;;;;;;;;;15.00;86.90;;;;;;5052474;28;20311;-82
2022/05/05 12:51:15;;;;;;;;;;;14.90;86.80;;;;;;5050858;28;19933;-79
2022/05/05 13:01:56;;;;;;;;;;;15.00;86.20;;;;;;5058308;28;19967;-78
2022/05/05 13:04:23;;;;;;;;;;;14.90;85.90;;;;;;5057014;28;20015;-80
2022/05/05 13:06:51;;;;;;;;;;;15.00;85.70;;;;;;5059921;28;19929;-80
2022/05/05 13:09:18;;;;;;;;;;;15.00;85.60;;;;;;5058698;28;20026;-79
2022/05/05 13:11:47;;;;;;;;;;;15.00;84.80;;;;;;5061284;28;19933;-78
2022/05/05 13:14:14;;;;;;;;;;;15.10;85.20;;;;;;5053922;28;20372;-79
2022/05/05 13:16:44;;;;;;;;;;;15.00;84.90;;;;;;5053866;28;20300;-78
2022/05/05 13:19:11;;;;;;;;;;;15.00;84.10;;;;;;5055767;28;19935;-78
2022/05/05 13:21:38;;;;;;;;;;;18.60;87.10;;;;;;5054335;28;19928;-70
2022/05/05 13:24:06;;;;;;;;;;;15.10;84.40;;;;;;5064091;28;19932;-70
2022/05/05 13:26:32;;;;;;;;;;;15.20;84.30;;;;;;5058956;28;19929;-68
2022/05/05 13:29:01;;;;;;;;;;;15.20;84.20;;;;;;5056194;28;19928;-69
2022/05/05 13:31:28;;;;;;;;;;;15.20;84.00;;;;;;5057388;28;20493;-69
2022/05/05 13:33:54;;;;;;;;;;;15.20;83.80;;;;;;5053943;28;20130;-70
2022/05/05 13:36:21;;;;;;;;;;;15.20;83.90;;;;;;5055700;28;19933;-69
2022/05/05 13:38:48;;;;;;;;;;;15.20;83.80;;;;;;5058495;28;19939;-69
2022/05/05 13:41:15;;;;;;;;;;;15.30;83.90;;;;;;5059541;28;19929;-69
2022/05/05 13:43:41;;;;;;;;;;;15.30;83.90;;;;;;5056266;28;19936;-69
2022/05/05 13:46:09;;;;;;;;;;;15.40;83.70;;;;;;5056753;28;20368;-70
2022/05/05 13:48:36;;;;;;;;;;;15.50;83.60;;;;;;5051750;28;19925;-69
2022/05/05 13:51:04;;;;;;;;;;;15.70;83.60;;;;;;5051658;28;20546;-69
2022/05/05 13:53:30;;;;;;;;;;;15.80;83.30;;;;;;5052776;28;20312;-69
2022/05/05 13:55:57;;;;;;;;;;;16.00;83.10;;;;;;5052655;28;19976;-69
2022/05/05 13:58:24;;;;;;;;;;;16.10;82.70;;;;;;5053625;28;19929;-68
2022/05/05 14:00:50;;;;;;;;;;;16.20;82.20;;;;;;5051300;28;19935;-68
2022/05/05 14:03:18;;;;;;;;;;;16.30;81.80;;;;;;5056106;28;19932;-69
2022/05/05 14:05:45;;;;;;;;;;;16.40;81.40;;;;;;5056803;28;19932;-69
2022/05/05 14:13:40;;;;;;;;;;;16.60;80.10;;;;;;5053315;28;20406;-70
2022/05/05 14:16:06;;;;;;;;;;;17.40;81.40;;;;;;5054387;28;19936;-70
2022/05/05 14:18:34;;;;;;;;;;;16.90;78.80;;;;;;5055685;28;19943;-69
2022/05/05 14:21:01;;;;;;;;;;;16.80;79.50;;;;;;5054382;28;19936;-81
2022/05/05 14:23:27;;;;;;;;;;;16.90;83.90;;;;;;5056257;28;19963;-79
2022/05/05 14:25:54;;;;;;;;;;;17.00;78.40;;;;;;5051959;28;19933;-80
2022/05/05 14:28:21;;;;;;;;;;;17.00;78.40;;;;;;5047361;28;19959;-79
2022/05/05 14:30:47;;;;;;;;;;;17.00;88.20;;;;;;5049264;28;19970;-79
2022/05/05 14:33:14;;;;;;;;;;;16.90;79.10;;;;;;5050878;28;19938;-78
2022/05/05 14:35:42;;;;;;;;;;;17.00;87.20;;;;;;5053057;28;19939;-77
2022/05/05 14:38:12;;;;;;;;;;;17.20;91.40;;;;;;5050340;28;19954;-76
2022/05/05 14:40:39;;;;;;;;;;;17.40;78.60;;;;;;5048719;28;19933;-76
2022/05/05 14:43:06;;;;;;;;;;;17.10;77.40;;;;;;5055397;28;19928;-76
2022/05/05 14:45:33;;;;;;;;;;;17.10;92.00;;;;;;5050593;28;20076;-78
2022/05/05 14:48:00;;;;;;;;;;;17.10;77.70;;;;;;5049370;28;19925;-77
2022/05/05 14:50:26;;;;;;;;;;;17.10;93.70;;;;;;5050171;28;19942;-76
2022/05/05 14:52:54;;;;;;;;;;;17.20;77.10;;;;;;5049720;28;19929;-77
2022/05/05 14:55:22;;;;;;;;;;;17.10;77.00;;;;;;5051899;28;19959;-77
2022/05/05 14:57:49;;;;;;;;;;;17.20;78.00;;;;;;5049581;28;19936;-77
2022/05/05 15:00:18;;;;;;;;;;;17.20;92.20;;;;;;5051539;28;19993;-75
2022/05/05 15:02:45;;;;;;;;;;;17.70;77.30;;;;;;5054135;28;19933;-77
2022/05/05 15:05:14;;;;;;;;;;;17.20;78.00;;;;;;5051274;28;19933;-77
2022/05/05 15:07:42;;;;;;;;;;;17.20;76.60;;;;;;5048694;28;20011;-77
2022/05/05 15:10:10;;;;;;;;;;;17.00;76.90;;;;;;5054871;28;19928;-77
2022/05/05 15:12:41;;;;;;;;;;;17.30;76.40;;;;;;5048306;28;20047;-77
2022/05/05 15:15:10;;;;;;;;;;;17.30;76.20;;;;;;5049632;28;20022;-76
2022/05/05 15:17:38;;;;;;;;;;;17.30;78.50;;;;;;5049779;28;20644;-77
2022/05/05 15:20:08;;;;;;;;;;;17.30;76.90;;;;;;5052943;28;19929;-77